PGT35AA LTFJ-LTBJ
Flight info
| Callsign | PGT35AA |
|---|---|
| Flight time | 0h 49m |
| Altitude | 31000 |
| Route | IVGUS1J/06L IVGUS UM19 OVZOK |
| Aircraft | B738/M-SDE2E3FGHIRWXY/LB1 |
Departure
| Time | 2026-05-01 14:21 |
|---|---|
| Airport | Istanbul Sabiha Gökçen International Airport (LTFJ) |
Arrival
| Time | 2026-05-01 15:10 |
|---|---|
| Airport | Adnan Menderes International Airport (LTBJ) |
| Time | Latitude | Longitude | Altitude | Speed | Heading |
|---|---|---|---|---|---|
| 2026-05-01 14:04 | 40.90777 | 29.32030 | 320 ft | 0 kts | 333° |
| 2026-05-01 14:08 | 40.90765 | 29.32039 | 320 ft | 2 kts | 332° |
| 2026-05-01 14:09 | 40.90751 | 29.32047 | 320 ft | 2 kts | 332° |
| 2026-05-01 14:09 | 40.90738 | 29.32056 | 320 ft | 2 kts | 332° |
| 2026-05-01 14:09 | 40.90725 | 29.32066 | 320 ft | 2 kts | 333° |
| 2026-05-01 14:09 | 40.90711 | 29.32074 | 320 ft | 2 kts | 348° |
| 2026-05-01 14:10 | 40.90696 | 29.32074 | 320 ft | 2 kts | 15° |
| 2026-05-01 14:10 | 40.90682 | 29.32065 | 320 ft | 2 kts | 41° |
| 2026-05-01 14:10 | 40.90675 | 29.32054 | 320 ft | 0 kts | 60° |
| 2026-05-01 14:10 | 40.90672 | 29.32045 | 320 ft | 0 kts | 64° |
| 2026-05-01 14:12 | 40.90675 | 29.32053 | 320 ft | 3 kts | 64° |
| 2026-05-01 14:13 | 40.90692 | 29.32099 | 320 ft | 6 kts | 63° |
| 2026-05-01 14:13 | 40.90707 | 29.32139 | 320 ft | 9 kts | 63° |
| 2026-05-01 14:13 | 40.90727 | 29.32267 | 320 ft | 12 kts | 138° |
| 2026-05-01 14:13 | 40.90646 | 29.32323 | 320 ft | 9 kts | 153° |
| 2026-05-01 14:14 | 40.90579 | 29.32316 | 320 ft | 12 kts | 235° |
| 2026-05-01 14:14 | 40.90525 | 29.32171 | 320 ft | 21 kts | 243° |
| 2026-05-01 14:14 | 40.90461 | 29.31998 | 320 ft | 22 kts | 244° |
| 2026-05-01 14:14 | 40.90386 | 29.31791 | 321 ft | 25 kts | 244° |
| 2026-05-01 14:15 | 40.90310 | 29.31586 | 321 ft | 24 kts | 244° |
| 2026-05-01 14:15 | 40.90227 | 29.31359 | 321 ft | 31 kts | 244° |
| 2026-05-01 14:15 | 40.90119 | 29.31066 | 321 ft | 34 kts | 244° |
| 2026-05-01 14:15 | 40.90021 | 29.30797 | 321 ft | 32 kts | 244° |
| 2026-05-01 14:16 | 40.89923 | 29.30536 | 321 ft | 31 kts | 244° |
| 2026-05-01 14:16 | 40.89831 | 29.30285 | 321 ft | 30 kts | 244° |
| 2026-05-01 14:16 | 40.89741 | 29.30041 | 321 ft | 29 kts | 244° |
| 2026-05-01 14:16 | 40.89655 | 29.29806 | 321 ft | 28 kts | 244° |
| 2026-05-01 14:17 | 40.89571 | 29.29577 | 321 ft | 26 kts | 242° |
| 2026-05-01 14:17 | 40.89490 | 29.29358 | 321 ft | 25 kts | 244° |
| 2026-05-01 14:17 | 40.89442 | 29.29258 | 321 ft | 10 kts | 213° |
| 2026-05-01 14:17 | 40.89379 | 29.29266 | 321 ft | 9 kts | 154° |
| 2026-05-01 14:18 | 40.89325 | 29.29301 | 321 ft | 8 kts | 153° |
| 2026-05-01 14:18 | 40.89283 | 29.29349 | 321 ft | 7 kts | 96° |
| 2026-05-01 14:18 | 40.89296 | 29.29403 | 321 ft | 0 kts | 65° |
| 2026-05-01 14:19 | 40.89299 | 29.29412 | 321 ft | 0 kts | 64° |
| 2026-05-01 14:20 | 40.89303 | 29.29423 | 321 ft | 10 kts | 64° |
| 2026-05-01 14:20 | 40.89777 | 29.30706 | 321 ft | 137 kts | 63° |
| 2026-05-01 14:20 | 40.90248 | 29.31991 | 589 ft | 162 kts | 62° |
| 2026-05-01 14:21 | 40.90715 | 29.33262 | 1398 ft | 156 kts | 59° |
| 2026-05-01 14:21 | 40.91214 | 29.34549 | 2045 ft | 159 kts | 59° |
| 2026-05-01 14:21 | 40.91730 | 29.35893 | 2335 ft | 175 kts | 60° |
| 2026-05-01 14:22 | 40.92854 | 29.39071 | 3041 ft | 208 kts | 68° |
| 2026-05-01 14:22 | 40.92977 | 29.41071 | 3418 ft | 233 kts | 95° |
| 2026-05-01 14:22 | 40.92258 | 29.43045 | 3898 ft | 255 kts | 122° |
| 2026-05-01 14:22 | 40.90861 | 29.44599 | 4416 ft | 272 kts | 144° |
| 2026-05-01 14:23 | 40.89171 | 29.45722 | 5079 ft | 276 kts | 151° |
| 2026-05-01 14:23 | 40.87400 | 29.46768 | 5758 ft | 278 kts | 153° |
| 2026-05-01 14:23 | 40.85567 | 29.47555 | 6455 ft | 282 kts | 166° |
| 2026-05-01 14:23 | 40.83597 | 29.47647 | 6924 ft | 291 kts | 188° |
| 2026-05-01 14:24 | 40.81710 | 29.46641 | 7555 ft | 294 kts | 215° |
| 2026-05-01 14:24 | 40.80160 | 29.44946 | 8435 ft | 289 kts | 223° |
| 2026-05-01 14:24 | 40.78693 | 29.43174 | 9133 ft | 291 kts | 223° |
| 2026-05-01 14:24 | 40.77214 | 29.41376 | 9848 ft | 292 kts | 224° |
| 2026-05-01 14:25 | 40.75720 | 29.39563 | 10547 ft | 294 kts | 224° |
| 2026-05-01 14:25 | 40.74174 | 29.37690 | 10959 ft | 308 kts | 224° |
| 2026-05-01 14:25 | 40.72617 | 29.35653 | 11348 ft | 321 kts | 230° |
| 2026-05-01 14:25 | 40.71406 | 29.33176 | 11703 ft | 333 kts | 248° |
| 2026-05-01 14:26 | 40.70853 | 29.30173 | 12079 ft | 345 kts | 266° |
| 2026-05-01 14:26 | 40.71512 | 29.23830 | 13346 ft | 354 kts | 285° |
| 2026-05-01 14:26 | 40.72237 | 29.20713 | 14064 ft | 357 kts | 287° |
| 2026-05-01 14:27 | 40.73025 | 29.17615 | 14783 ft | 360 kts | 288° |
| 2026-05-01 14:27 | 40.73831 | 29.14481 | 15505 ft | 364 kts | 287° |
| 2026-05-01 14:27 | 40.74628 | 29.11331 | 16226 ft | 366 kts | 287° |
| 2026-05-01 14:28 | 40.76194 | 29.04914 | 17637 ft | 371 kts | 285° |
| 2026-05-01 14:28 | 40.76840 | 29.01634 | 18280 ft | 374 kts | 281° |
| 2026-05-01 14:28 | 40.77265 | 28.98277 | 18893 ft | 377 kts | 277° |
| 2026-05-01 14:28 | 40.77535 | 28.94814 | 19569 ft | 379 kts | 274° |
| 2026-05-01 14:29 | 40.77732 | 28.91349 | 20224 ft | 382 kts | 273° |
| 2026-05-01 14:29 | 40.77907 | 28.87889 | 20805 ft | 386 kts | 273° |
| 2026-05-01 14:30 | 40.78457 | 28.77226 | 22606 ft | 394 kts | 273° |
| 2026-05-01 14:30 | 40.78651 | 28.73649 | 23171 ft | 397 kts | 273° |
| 2026-05-01 14:30 | 40.78852 | 28.70001 | 23736 ft | 399 kts | 274° |
| 2026-05-01 14:31 | 40.79258 | 28.62669 | 24816 ft | 404 kts | 273° |
| 2026-05-01 14:31 | 40.79428 | 28.59015 | 25339 ft | 405 kts | 271° |
| 2026-05-01 14:31 | 40.79435 | 28.55304 | 25847 ft | 407 kts | 268° |
| 2026-05-01 14:31 | 40.79327 | 28.51544 | 26166 ft | 412 kts | 267° |
| 2026-05-01 14:32 | 40.79171 | 28.47804 | 26182 ft | 412 kts | 266° |
| 2026-05-01 14:32 | 40.78999 | 28.44024 | 26181 ft | 408 kts | 266° |
| 2026-05-01 14:32 | 40.78830 | 28.40288 | 26190 ft | 409 kts | 266° |
| 2026-05-01 14:32 | 40.78668 | 28.36542 | 26184 ft | 411 kts | 266° |
| 2026-05-01 14:33 | 40.78512 | 28.32775 | 26182 ft | 410 kts | 266° |
| 2026-05-01 14:33 | 40.78364 | 28.29058 | 26185 ft | 410 kts | 266° |
| 2026-05-01 14:33 | 40.78224 | 28.25324 | 26185 ft | 411 kts | 267° |
| 2026-05-01 14:33 | 40.78195 | 28.21556 | 26185 ft | 410 kts | 270° |
| 2026-05-01 14:34 | 40.78286 | 28.17792 | 26184 ft | 411 kts | 271° |
| 2026-05-01 14:34 | 40.78430 | 28.14037 | 26187 ft | 411 kts | 272° |
| 2026-05-01 14:34 | 40.78590 | 28.10266 | 26190 ft | 411 kts | 272° |
| 2026-05-01 14:34 | 40.78749 | 28.06490 | 26184 ft | 411 kts | 272° |
| 2026-05-01 14:35 | 40.78898 | 28.02769 | 26186 ft | 411 kts | 272° |
| 2026-05-01 14:35 | 40.79040 | 27.98987 | 26180 ft | 410 kts | 272° |
| 2026-05-01 14:35 | 40.79172 | 27.95253 | 26191 ft | 411 kts | 272° |
| 2026-05-01 14:35 | 40.79302 | 27.91447 | 26190 ft | 412 kts | 272° |
| 2026-05-01 14:36 | 40.79420 | 27.87693 | 26188 ft | 411 kts | 271° |
| 2026-05-01 14:36 | 40.79262 | 27.83981 | 26179 ft | 410 kts | 262° |
| 2026-05-01 14:36 | 40.78597 | 27.80286 | 26186 ft | 411 kts | 253° |
| 2026-05-01 14:36 | 40.77563 | 27.76824 | 26196 ft | 413 kts | 247° |
| 2026-05-01 14:37 | 40.76248 | 27.73452 | 26180 ft | 414 kts | 241° |
| 2026-05-01 14:37 | 40.74540 | 27.70390 | 26181 ft | 416 kts | 231° |
| 2026-05-01 14:37 | 40.72444 | 27.67754 | 26176 ft | 420 kts | 222° |
| 2026-05-01 14:37 | 40.70079 | 27.65474 | 26177 ft | 421 kts | 218° |
| 2026-05-01 14:38 | 40.67606 | 27.63388 | 26168 ft | 423 kts | 213° |
| 2026-05-01 14:38 | 40.64938 | 27.61736 | 26174 ft | 427 kts | 204° |
| 2026-05-01 14:38 | 40.62131 | 27.60538 | 26175 ft | 430 kts | 202° |
| 2026-05-01 14:38 | 40.59323 | 27.59135 | 26162 ft | 426 kts | 207° |
| 2026-05-01 14:39 | 40.56551 | 27.57733 | 26160 ft | 427 kts | 202° |
| 2026-05-01 14:39 | 40.53680 | 27.56732 | 26160 ft | 431 kts | 197° |
| 2026-05-01 14:39 | 40.50707 | 27.56120 | 26162 ft | 435 kts | 191° |
| 2026-05-01 14:39 | 40.47701 | 27.55782 | 26154 ft | 437 kts | 189° |
| 2026-05-01 14:40 | 40.44673 | 27.55544 | 26157 ft | 435 kts | 188° |
| 2026-05-01 14:40 | 40.41640 | 27.55314 | 26154 ft | 434 kts | 188° |
| 2026-05-01 14:40 | 40.38625 | 27.55056 | 26156 ft | 433 kts | 189° |
| 2026-05-01 14:40 | 40.35640 | 27.54760 | 26157 ft | 433 kts | 189° |
| 2026-05-01 14:41 | 40.32635 | 27.54425 | 26147 ft | 433 kts | 190° |
| 2026-05-01 14:41 | 40.29637 | 27.54063 | 26149 ft | 432 kts | 191° |
| 2026-05-01 14:41 | 40.26686 | 27.53690 | 26146 ft | 433 kts | 191° |
| 2026-05-01 14:41 | 40.23656 | 27.53296 | 26139 ft | 432 kts | 191° |
| 2026-05-01 14:42 | 40.20686 | 27.52903 | 26139 ft | 432 kts | 191° |
| 2026-05-01 14:42 | 40.17713 | 27.52508 | 26138 ft | 432 kts | 192° |
| 2026-05-01 14:42 | 40.14703 | 27.52106 | 26137 ft | 433 kts | 192° |
| 2026-05-01 14:42 | 40.11729 | 27.51709 | 26133 ft | 431 kts | 192° |
| 2026-05-01 14:43 | 40.08728 | 27.51308 | 26134 ft | 432 kts | 192° |
| 2026-05-01 14:43 | 40.05757 | 27.50912 | 26136 ft | 432 kts | 192° |
| 2026-05-01 14:43 | 40.02767 | 27.50513 | 26127 ft | 431 kts | 192° |
| 2026-05-01 14:43 | 39.99815 | 27.50120 | 26125 ft | 429 kts | 192° |
| 2026-05-01 14:44 | 39.96821 | 27.49722 | 26120 ft | 432 kts | 192° |
| 2026-05-01 14:44 | 39.90847 | 27.48928 | 26119 ft | 430 kts | 192° |
| 2026-05-01 14:44 | 39.87864 | 27.48531 | 26126 ft | 431 kts | 192° |
| 2026-05-01 14:45 | 39.84886 | 27.48136 | 26124 ft | 431 kts | 192° |
| 2026-05-01 14:45 | 39.78938 | 27.47348 | 26115 ft | 431 kts | 192° |
| 2026-05-01 14:45 | 39.75940 | 27.46952 | 26111 ft | 429 kts | 192° |
| 2026-05-01 14:46 | 39.72986 | 27.46562 | 26107 ft | 431 kts | 193° |
| 2026-05-01 14:46 | 39.67022 | 27.45773 | 26093 ft | 430 kts | 193° |
| 2026-05-01 14:46 | 39.64045 | 27.45381 | 26094 ft | 430 kts | 193° |
| 2026-05-01 14:47 | 39.61060 | 27.44989 | 26089 ft | 429 kts | 193° |
| 2026-05-01 14:47 | 39.58126 | 27.44604 | 26094 ft | 428 kts | 193° |
| 2026-05-01 14:47 | 39.55133 | 27.44211 | 26087 ft | 429 kts | 193° |
| 2026-05-01 14:48 | 39.49231 | 27.43435 | 26086 ft | 429 kts | 193° |
| 2026-05-01 14:48 | 39.46259 | 27.43046 | 26084 ft | 429 kts | 193° |
| 2026-05-01 14:48 | 39.40321 | 27.42256 | 26078 ft | 429 kts | 194° |
| 2026-05-01 14:49 | 39.34528 | 27.40871 | 26083 ft | 421 kts | 201° |
| 2026-05-01 14:49 | 39.28903 | 27.38842 | 26081 ft | 419 kts | 204° |
| 2026-05-01 14:50 | 39.25183 | 27.37413 | 26082 ft | 418 kts | 204° |
| 2026-05-01 14:50 | 39.17793 | 27.34581 | 26072 ft | 415 kts | 203° |
| 2026-05-01 14:51 | 39.15019 | 27.33530 | 26014 ft | 419 kts | 204° |
| 2026-05-01 14:51 | 39.09382 | 27.31409 | 25017 ft | 418 kts | 202° |
| 2026-05-01 14:52 | 39.03897 | 27.29372 | 23985 ft | 406 kts | 202° |
| 2026-05-01 14:52 | 39.01199 | 27.28372 | 23333 ft | 402 kts | 202° |
| 2026-05-01 14:52 | 38.95882 | 27.26400 | 22046 ft | 396 kts | 202° |
| 2026-05-01 14:53 | 38.93232 | 27.25418 | 21397 ft | 393 kts | 201° |
| 2026-05-01 14:53 | 38.90604 | 27.24469 | 20767 ft | 391 kts | 200° |
| 2026-05-01 14:53 | 38.87948 | 27.23685 | 20136 ft | 392 kts | 195° |
| 2026-05-01 14:53 | 38.85262 | 27.23278 | 19488 ft | 394 kts | 189° |
| 2026-05-01 14:54 | 38.82528 | 27.23155 | 18844 ft | 394 kts | 185° |
| 2026-05-01 14:54 | 38.79812 | 27.23171 | 18219 ft | 392 kts | 184° |
| 2026-05-01 14:54 | 38.77090 | 27.23241 | 17781 ft | 385 kts | 183° |
| 2026-05-01 14:54 | 38.74457 | 27.23320 | 17558 ft | 372 kts | 183° |
| 2026-05-01 14:55 | 38.71934 | 27.23388 | 17425 ft | 357 kts | 184° |
| 2026-05-01 14:55 | 38.69501 | 27.23395 | 17273 ft | 343 kts | 186° |
| 2026-05-01 14:55 | 38.67164 | 27.23149 | 17038 ft | 329 kts | 194° |
| 2026-05-01 14:55 | 38.64972 | 27.22574 | 16992 ft | 310 kts | 199° |
| 2026-05-01 14:56 | 38.62942 | 27.21864 | 16750 ft | 298 kts | 201° |
| 2026-05-01 14:56 | 38.60978 | 27.21115 | 16361 ft | 299 kts | 202° |
| 2026-05-01 14:56 | 38.58939 | 27.20335 | 15960 ft | 306 kts | 201° |
| 2026-05-01 14:56 | 38.56910 | 27.19587 | 15560 ft | 302 kts | 200° |
| 2026-05-01 14:57 | 38.54924 | 27.18879 | 15152 ft | 295 kts | 200° |
| 2026-05-01 14:57 | 38.50908 | 27.17451 | 14378 ft | 306 kts | 200° |
| 2026-05-01 14:57 | 38.48869 | 27.16729 | 13972 ft | 305 kts | 200° |
| 2026-05-01 14:58 | 38.46841 | 27.16012 | 13565 ft | 303 kts | 200° |
| 2026-05-01 14:58 | 38.44795 | 27.15290 | 13163 ft | 301 kts | 199° |
| 2026-05-01 14:58 | 38.42790 | 27.14584 | 12766 ft | 299 kts | 199° |
| 2026-05-01 14:58 | 38.40807 | 27.13886 | 12380 ft | 297 kts | 199° |
| 2026-05-01 14:59 | 38.38817 | 27.13181 | 11995 ft | 296 kts | 199° |
| 2026-05-01 14:59 | 38.36835 | 27.12482 | 11612 ft | 294 kts | 199° |
| 2026-05-01 14:59 | 38.34855 | 27.11785 | 11209 ft | 293 kts | 199° |
| 2026-05-01 14:59 | 38.32899 | 27.11099 | 10834 ft | 292 kts | 198° |
| 2026-05-01 15:00 | 38.29001 | 27.09732 | 10087 ft | 289 kts | 198° |
| 2026-05-01 15:00 | 38.27074 | 27.09051 | 9890 ft | 282 kts | 198° |
| 2026-05-01 15:00 | 38.25193 | 27.08381 | 9511 ft | 282 kts | 198° |
| 2026-05-01 15:01 | 38.23294 | 27.07709 | 9108 ft | 283 kts | 197° |
| 2026-05-01 15:01 | 38.21402 | 27.07273 | 8991 ft | 274 kts | 185° |
| 2026-05-01 15:01 | 38.19513 | 27.07475 | 8777 ft | 271 kts | 169° |
| 2026-05-01 15:01 | 38.17686 | 27.08093 | 8433 ft | 271 kts | 165° |
| 2026-05-01 15:02 | 38.15890 | 27.08754 | 8116 ft | 269 kts | 165° |
| 2026-05-01 15:02 | 38.15286 | 27.08966 | 8030 ft | 268 kts | 166° |
| 2026-05-01 15:02 | 38.12293 | 27.09922 | 7514 ft | 266 kts | 167° |
| 2026-05-01 15:02 | 38.10486 | 27.10461 | 7223 ft | 264 kts | 168° |
| 2026-05-01 15:03 | 38.08697 | 27.10993 | 6922 ft | 263 kts | 168° |
| 2026-05-01 15:03 | 38.06968 | 27.11665 | 6590 ft | 263 kts | 157° |
| 2026-05-01 15:03 | 38.05482 | 27.13048 | 6152 ft | 266 kts | 125° |
| 2026-05-01 15:03 | 38.04839 | 27.15128 | 6030 ft | 249 kts | 94° |
| 2026-05-01 15:04 | 38.04936 | 27.17216 | 6026 ft | 227 kts | 78° |
| 2026-05-01 15:04 | 38.05290 | 27.19123 | 5861 ft | 218 kts | 68° |
| 2026-05-01 15:04 | 38.06080 | 27.20724 | 5479 ft | 217 kts | 39° |
| 2026-05-01 15:04 | 38.07420 | 27.21575 | 5078 ft | 218 kts | 9° |
| 2026-05-01 15:05 | 38.08892 | 27.21578 | 4939 ft | 207 kts | 352° |
| 2026-05-01 15:05 | 38.10291 | 27.21285 | 4625 ft | 203 kts | 349° |
| 2026-05-01 15:05 | 38.11681 | 27.20914 | 4222 ft | 203 kts | 348° |
| 2026-05-01 15:05 | 38.13069 | 27.20513 | 3740 ft | 207 kts | 348° |
| 2026-05-01 15:06 | 38.14444 | 27.20107 | 3477 ft | 198 kts | 348° |
| 2026-05-01 15:06 | 38.15727 | 27.19726 | 3425 ft | 180 kts | 349° |
| 2026-05-01 15:06 | 38.16914 | 27.19373 | 3122 ft | 172 kts | 348° |
| 2026-05-01 15:06 | 38.18090 | 27.19026 | 2485 ft | 180 kts | 349° |
| 2026-05-01 15:07 | 38.19313 | 27.18660 | 1972 ft | 175 kts | 349° |
| 2026-05-01 15:07 | 38.20413 | 27.18331 | 1857 ft | 154 kts | 349° |
| 2026-05-01 15:07 | 38.21405 | 27.18035 | 1726 ft | 142 kts | 349° |
| 2026-05-01 15:07 | 38.22390 | 27.17738 | 1495 ft | 144 kts | 350° |
| 2026-05-01 15:08 | 38.23352 | 27.17454 | 1296 ft | 140 kts | 350° |
| 2026-05-01 15:08 | 38.24305 | 27.17176 | 1142 ft | 141 kts | 349° |
| 2026-05-01 15:08 | 38.25260 | 27.16876 | 947 ft | 140 kts | 350° |
| 2026-05-01 15:08 | 38.26202 | 27.16598 | 735 ft | 137 kts | 350° |
| 2026-05-01 15:09 | 38.27111 | 27.16329 | 545 ft | 132 kts | 349° |
| 2026-05-01 15:09 | 38.27992 | 27.16068 | 394 ft | 126 kts | 350° |
| 2026-05-01 15:09 | 38.28686 | 27.15862 | 404 ft | 70 kts | 348° |
| 2026-05-01 15:09 | 38.29089 | 27.15743 | 407 ft | 54 kts | 346° |
| 2026-05-01 15:10 | 38.29378 | 27.15656 | 409 ft | 22 kts | 347° |
| 2026-05-01 15:10 | 38.29409 | 27.15530 | 407 ft | 9 kts | 257° |
| 2026-05-01 15:10 | 38.29393 | 27.15444 | 405 ft | 11 kts | 256° |
| 2026-05-01 15:11 | 38.29374 | 27.15342 | 405 ft | 11 kts | 257° |
| 2026-05-01 15:11 | 38.29332 | 27.15148 | 402 ft | 9 kts | 221° |
| 2026-05-01 15:11 | 38.29263 | 27.15134 | 404 ft | 10 kts | 231° |
| 2026-05-01 15:12 | 38.29247 | 27.15076 | 405 ft | 3 kts | 257° |
| 2026-05-01 15:12 | 38.29246 | 27.15070 | 405 ft | 0 kts | 257° |